Time;durP1;ratioP1;P1;durP2;ratioP2;P2;SDS_P1;SDS_P2;PMS_P1;PMS_P2;Temp;Humidity;BMP_temperature;BMP_pressure;BME280_temperature;BME280_humidity;BME280_pressure;Samples;Min_cycle;Max_cycle;Signal;HPM_P1;HPM_P2
2021/07/13 00:02:16;;;;;;;11.70;10.60;;;;;;;;;;5073084;28;20998;-74
2021/07/13 00:04:43;;;;;;;10.53;9.60;;;;;;;;;;5077137;28;20488;-73
2021/07/13 00:07:10;;;;;;;10.87;9.90;;;;;;;;;;5079273;28;20511;-73
2021/07/13 00:09:39;;;;;;;10.60;9.50;;;;;;;;;;5087349;28;20793;-74
2021/07/13 00:12:07;;;;;;;9.93;9.03;;;;;;;;;;5073182;28;20440;-73
2021/07/13 00:14:35;;;;;;;9.70;8.90;;;;;;;;;;5073369;28;20447;-73
2021/07/13 00:17:05;;;;;;;9.80;9.00;;;;;;;;;;5073152;28;20463;-74
2021/07/13 00:19:33;;;;;;;11.80;10.57;;;;;;;;;;5073786;28;20450;-74
2021/07/13 00:22:00;;;;;;;9.30;8.50;;;;;;;;;;5073343;28;20449;-74
2021/07/13 00:24:27;;;;;;;9.93;9.10;;;;;;;;;;5076957;28;20477;-74
2021/07/13 00:26:55;;;;;;;9.87;8.87;;;;;;;;;;5077032;28;20508;-74
2021/07/13 00:29:23;;;;;;;9.87;8.10;;;;;;;;;;5076806;28;20458;-74
2021/07/13 00:31:50;;;;;;;10.20;9.10;;;;;;;;;;5076752;28;20938;-74
2021/07/13 00:34:17;;;;;;;10.13;9.17;;;;;;;;;;5077034;28;20780;-74
2021/07/13 00:36:44;;;;;;;12.80;9.77;;;;;;;;;;5076820;28;20534;-73
2021/07/13 00:39:11;;;;;;;9.03;8.20;;;;;;;;;;5076826;28;20441;-73
2021/07/13 00:41:39;;;;;;;9.23;8.50;;;;;;;;;;5077390;28;20546;-73
2021/07/13 00:44:07;;;;;;;9.87;8.97;;;;;;;;;;5087495;28;20432;-73
2021/07/13 00:46:40;;;;;;;9.33;8.43;;;;;;;;;;5087647;28;20793;-73
2021/07/13 00:49:07;;;;;;;11.13;8.67;;;;;;;;;;5096339;28;20546;-73
2021/07/13 00:51:35;;;;;;;8.93;8.20;;;;;;;;;;5096916;28;20537;-73
2021/07/13 00:54:02;;;;;;;8.70;7.90;;;;;;;;;;5088661;28;20482;-73
2021/07/13 00:56:29;;;;;;;9.60;8.60;;;;;;;;;;5076537;28;20537;-73
2021/07/13 00:58:57;;;;;;;9.20;8.40;;;;;;;;;;5076674;28;20462;-74
2021/07/13 01:01:25;;;;;;;9.27;8.57;;;;;;;;;;5076871;28;20444;-73
2021/07/13 01:03:52;;;;;;;8.80;8.00;;;;;;;;;;5076161;28;20466;-74
2021/07/13 01:06:22;;;;;;;9.03;8.23;;;;;;;;;;5076703;28;20491;-73
2021/07/13 01:08:52;;;;;;;8.73;7.90;;;;;;;;;;5076061;28;20451;-73
2021/07/13 01:11:23;;;;;;;9.70;8.90;;;;;;;;;;5079645;28;20453;-73
2021/07/13 01:13:52;;;;;;;8.63;7.53;;;;;;;;;;5096731;28;20439;-73
2021/07/13 01:16:22;;;;;;;8.63;7.73;;;;;;;;;;5096125;28;20446;-73
2021/07/13 01:18:56;;;;;;;11.83;9.43;;;;;;;;;;5081117;28;20485;-73
2021/07/13 01:21:32;;;;;;;10.23;9.23;;;;;;;;;;5076166;28;20443;-73
2021/07/13 01:24:11;;;;;;;9.43;8.53;;;;;;;;;;5075964;28;20561;-73
2021/07/13 01:26:47;;;;;;;10.63;9.67;;;;;;;;;;5075786;28;20964;-73
2021/07/13 01:29:16;;;;;;;12.00;9.70;;;;;;;;;;5075348;28;20971;-73
2021/07/13 01:31:45;;;;;;;9.57;8.60;;;;;;;;;;5076229;28;20445;-72
2021/07/13 01:34:15;;;;;;;10.87;9.43;;;;;;;;;;5075059;28;20440;-73
2021/07/13 01:36:44;;;;;;;11.73;10.73;;;;;;;;;;5075586;28;20936;-73
2021/07/13 01:39:11;;;;;;;13.23;10.03;;;;;;;;;;5075432;28;20478;-73
2021/07/13 01:41:39;;;;;;;10.53;9.60;;;;;;;;;;5077642;28;20459;-74
2021/07/13 01:44:07;;;;;;;11.90;10.80;;;;;;;;;;5084319;28;20528;-73
2021/07/13 01:46:37;;;;;;;11.30;10.30;;;;;;;;;;5086310;28;20471;-73
2021/07/13 01:49:04;;;;;;;10.90;9.90;;;;;;;;;;5086697;28;20454;-73
2021/07/13 01:51:32;;;;;;;11.80;10.43;;;;;;;;;;5080560;28;20438;-73
2021/07/13 01:54:03;;;;;;;10.50;9.50;;;;;;;;;;5077560;28;20482;-73
2021/07/13 01:56:31;;;;;;;12.50;10.77;;;;;;;;;;5075704;28;20436;-73
2021/07/13 01:58:59;;;;;;;12.87;11.57;;;;;;;;;;5077273;28;20467;-73
2021/07/13 02:01:26;;;;;;;11.23;10.17;;;;;;;;;;5090750;28;20532;-73
2021/07/13 02:03:56;;;;;;;13.37;12.07;;;;;;;;;;5095568;28;20446;-72
2021/07/13 02:06:25;;;;;;;12.63;11.40;;;;;;;;;;5090052;28;20476;-73
2021/07/13 02:08:53;;;;;;;12.97;11.57;;;;;;;;;;5088493;28;20929;-72
2021/07/13 02:11:21;;;;;;;11.50;10.40;;;;;;;;;;5078436;28;20548;-72
2021/07/13 02:13:48;;;;;;;11.60;10.50;;;;;;;;;;5075138;28;20787;-73
2021/07/13 02:16:15;;;;;;;11.40;10.40;;;;;;;;;;5079562;28;20821;-73
2021/07/13 02:18:43;;;;;;;11.10;10.10;;;;;;;;;;5095349;28;20774;-74
2021/07/13 02:21:14;;;;;;;10.80;9.77;;;;;;;;;;5095263;28;20447;-73
2021/07/13 02:23:41;;;;;;;11.03;10.03;;;;;;;;;;5095600;28;20497;-73
2021/07/13 02:26:10;;;;;;;10.60;9.60;;;;;;;;;;5095418;28;20561;-73
2021/07/13 02:28:38;;;;;;;10.23;9.33;;;;;;;;;;5076552;28;20456;-73
2021/07/13 02:31:12;;;;;;;11.23;10.17;;;;;;;;;;5091854;28;20965;-73
2021/07/13 02:33:44;;;;;;;11.10;10.00;;;;;;;;;;5094923;28;20924;-72
2021/07/13 02:36:16;;;;;;;12.10;10.87;;;;;;;;;;5095278;28;20466;-72
2021/07/13 02:38:43;;;;;;;11.40;10.40;;;;;;;;;;5095451;28;20892;-72
2021/07/13 02:41:11;;;;;;;14.83;10.03;;;;;;;;;;5086272;28;20451;-72
2021/07/13 02:43:38;;;;;;;10.93;9.93;;;;;;;;;;5094839;28;20443;-72
2021/07/13 02:46:06;;;;;;;10.80;9.70;;;;;;;;;;5093374;28;20839;-72
2021/07/13 02:48:36;;;;;;;11.20;10.20;;;;;;;;;;5094846;28;20466;-72
2021/07/13 02:51:04;;;;;;;10.37;9.47;;;;;;;;;;5095243;28;20444;-73
2021/07/13 02:53:33;;;;;;;11.93;10.77;;;;;;;;;;5094115;28;20825;-73
2021/07/13 02:56:01;;;;;;;11.63;10.53;;;;;;;;;;5095445;28;20452;-74
2021/07/13 02:58:29;;;;;;;13.90;11.00;;;;;;;;;;5086083;28;20490;-74
2021/07/13 03:00:56;;;;;;;10.20;9.30;;;;;;;;;;5090796;28;20437;-73
2021/07/13 03:03:24;;;;;;;12.10;10.90;;;;;;;;;;5074724;28;20460;-73
2021/07/13 03:05:52;;;;;;;11.43;10.23;;;;;;;;;;5073794;28;20486;-74
2021/07/13 03:08:20;;;;;;;15.13;11.17;;;;;;;;;;5073917;28;20452;-74
2021/07/13 03:10:49;;;;;;;13.83;11.53;;;;;;;;;;5073759;28;20453;-74
2021/07/13 03:13:17;;;;;;;11.03;10.00;;;;;;;;;;5073633;28;20448;-74
2021/07/13 03:15:44;;;;;;;11.20;10.10;;;;;;;;;;5093951;28;20470;-74
2021/07/13 03:18:11;;;;;;;12.27;10.53;;;;;;;;;;5094144;28;20444;-74
2021/07/13 03:20:39;;;;;;;13.20;11.67;;;;;;;;;;5076335;28;20816;-74
2021/07/13 03:23:06;;;;;;;11.50;10.40;;;;;;;;;;5073869;28;20440;-74
2021/07/13 03:25:35;;;;;;;10.23;9.33;;;;;;;;;;5081347;28;20478;-74
2021/07/13 03:28:04;;;;;;;15.90;13.13;;;;;;;;;;5075679;28;20951;-74
2021/07/13 03:30:33;;;;;;;13.13;11.73;;;;;;;;;;5081480;28;20533;-74
2021/07/13 03:33:01;;;;;;;12.63;11.40;;;;;;;;;;5073322;28;20539;-74
2021/07/13 03:35:29;;;;;;;12.20;11.07;;;;;;;;;;5077800;28;20462;-75
2021/07/13 03:37:57;;;;;;;12.47;11.33;;;;;;;;;;5093585;28;20485;-73
2021/07/13 03:40:25;;;;;;;13.33;12.03;;;;;;;;;;5079280;28;20965;-74
2021/07/13 03:42:53;;;;;;;11.33;10.33;;;;;;;;;;5073821;28;20446;-73
2021/07/13 03:45:22;;;;;;;13.67;10.90;;;;;;;;;;5078369;28;20466;-74
2021/07/13 03:47:50;;;;;;;13.10;11.90;;;;;;;;;;5087250;28;20504;-74
2021/07/13 03:50:17;;;;;;;14.27;12.90;;;;;;;;;;5081247;28;20463;-73
2021/07/13 03:52:45;;;;;;;12.70;11.60;;;;;;;;;;5091421;28;20435;-72
2021/07/13 03:55:12;;;;;;;14.87;13.37;;;;;;;;;;5073587;28;20553;-73
2021/07/13 03:57:40;;;;;;;13.67;11.43;;;;;;;;;;5073318;28;20449;-73
2021/07/13 04:00:08;;;;;;;12.53;11.33;;;;;;;;;;5073335;28;20441;-73
2021/07/13 04:02:37;;;;;;;11.60;10.43;;;;;;;;;;5076838;28;20457;-73
2021/07/13 04:05:05;;;;;;;15.63;14.03;;;;;;;;;;5093645;28;20451;-73
2021/07/13 04:07:32;;;;;;;15.13;12.07;;;;;;;;;;5093399;28;20837;-73
2021/07/13 04:09:59;;;;;;;16.60;12.90;;;;;;;;;;5081291;28;20472;-73
2021/07/13 04:12:26;;;;;;;15.23;13.63;;;;;;;;;;5088299;28;20478;-73
2021/07/13 04:14:53;;;;;;;15.83;14.33;;;;;;;;;;5072862;28;20547;-73
2021/07/13 04:17:21;;;;;;;15.17;13.70;;;;;;;;;;5073134;28;20446;-73
2021/07/13 04:19:49;;;;;;;16.23;14.67;;;;;;;;;;5076243;28;20450;-74
2021/07/13 04:22:16;;;;;;;14.90;13.50;;;;;;;;;;5093304;28;20450;-73
2021/07/13 04:24:44;;;;;;;16.13;13.93;;;;;;;;;;5093522;28;20437;-74
2021/07/13 04:27:11;;;;;;;15.03;13.60;;;;;;;;;;5092874;28;20478;-73
2021/07/13 04:29:38;;;;;;;16.10;14.43;;;;;;;;;;5088340;28;20451;-74
2021/07/13 04:32:06;;;;;;;14.03;12.53;;;;;;;;;;5077501;28;20459;-73
2021/07/13 04:34:34;;;;;;;15.90;14.30;;;;;;;;;;5093100;28;20450;-73
2021/07/13 04:37:03;;;;;;;16.33;14.63;;;;;;;;;;5088046;28;20457;-73
2021/07/13 04:39:30;;;;;;;15.83;14.23;;;;;;;;;;5086338;28;20911;-73
2021/07/13 04:41:57;;;;;;;17.70;15.90;;;;;;;;;;5076881;28;20554;-74
2021/07/13 04:44:25;;;;;;;15.07;13.47;;;;;;;;;;5072895;28;20496;-74
2021/07/13 04:46:53;;;;;;;15.43;13.97;;;;;;;;;;5076654;28;20483;-73
2021/07/13 04:49:21;;;;;;;16.30;14.30;;;;;;;;;;5093182;28;20873;-73
2021/07/13 04:51:48;;;;;;;22.43;16.60;;;;;;;;;;5092799;28;20442;-73
2021/07/13 04:54:16;;;;;;;17.53;15.63;;;;;;;;;;5079190;28;20511;-72
2021/07/13 04:56:44;;;;;;;15.83;13.23;;;;;;;;;;5090490;28;20462;-72
2021/07/13 04:59:11;;;;;;;20.30;15.27;;;;;;;;;;5093188;28;20442;-73
2021/07/13 05:01:38;;;;;;;16.90;14.60;;;;;;;;;;5076949;28;20876;-72
2021/07/13 05:04:05;;;;;;;16.60;14.90;;;;;;;;;;5081531;28;20439;-73
2021/07/13 05:06:36;;;;;;;16.13;14.57;;;;;;;;;;5072279;28;20478;-74
2021/07/13 05:09:03;;;;;;;18.47;15.20;;;;;;;;;;5072422;28;20925;-74
2021/07/13 05:11:33;;;;;;;17.43;15.10;;;;;;;;;;5075474;28;21039;-73
2021/07/13 05:14:01;;;;;;;16.10;14.40;;;;;;;;;;5076874;28;20440;-71
2021/07/13 05:16:28;;;;;;;17.33;15.63;;;;;;;;;;5079022;28;20450;-72
2021/07/13 05:18:55;;;;;;;17.50;15.70;;;;;;;;;;5096169;28;20436;-72
2021/07/13 05:21:22;;;;;;;19.17;17.17;;;;;;;;;;5096622;28;20446;-72
2021/07/13 05:23:50;;;;;;;17.90;16.00;;;;;;;;;;5096161;28;20455;-72
2021/07/13 05:26:17;;;;;;;21.50;17.77;;;;;;;;;;5095998;28;20474;-72
2021/07/13 05:28:48;;;;;;;22.60;18.00;;;;;;;;;;5080968;28;20456;-73
2021/07/13 05:31:16;;;;;;;19.60;16.93;;;;;;;;;;5075106;28;20424;-73
2021/07/13 05:33:43;;;;;;;21.13;18.93;;;;;;;;;;5078856;28;20769;-73
2021/07/13 05:36:10;;;;;;;20.53;17.93;;;;;;;;;;5088330;28;20451;-68
2021/07/13 05:38:37;;;;;;;22.07;18.70;;;;;;;;;;5078806;28;20957;-70
2021/07/13 05:41:04;;;;;;;22.30;18.10;;;;;;;;;;5083363;28;20556;-74
2021/07/13 05:43:32;;;;;;;18.90;16.90;;;;;;;;;;5077969;28;20808;-74
2021/07/13 05:46:00;;;;;;;20.73;18.60;;;;;;;;;;5087075;28;20462;-74
2021/07/13 05:48:27;;;;;;;21.13;18.90;;;;;;;;;;5075604;28;20506;-74
2021/07/13 05:50:54;;;;;;;20.90;18.67;;;;;;;;;;5093538;28;20466;-74
2021/07/13 05:53:22;;;;;;;25.27;20.67;;;;;;;;;;5095435;28;20443;-74
2021/07/13 05:55:49;;;;;;;23.53;21.23;;;;;;;;;;5091160;28;20456;-74
2021/07/13 05:58:19;;;;;;;23.47;20.80;;;;;;;;;;5079697;28;20471;-74
2021/07/13 06:00:47;;;;;;;22.13;19.77;;;;;;;;;;5075497;28;20763;-73
2021/07/13 06:03:15;;;;;;;21.43;19.23;;;;;;;;;;5080815;28;20537;-74
2021/07/13 06:05:44;;;;;;;27.43;19.77;;;;;;;;;;5075377;28;20818;-74
2021/07/13 06:08:11;;;;;;;23.50;20.97;;;;;;;;;;5075570;28;20489;-73
2021/07/13 06:10:38;;;;;;;24.67;20.50;;;;;;;;;;5082847;28;20531;-73
2021/07/13 06:13:05;;;;;;;23.30;20.37;;;;;;;;;;5091478;28;20450;-74
2021/07/13 06:15:33;;;;;;;25.47;21.40;;;;;;;;;;5083479;28;20473;-74
2021/07/13 06:18:00;;;;;;;23.17;20.77;;;;;;;;;;5088042;28;20469;-73
2021/07/13 06:20:29;;;;;;;26.47;23.63;;;;;;;;;;5074529;28;20492;-74
2021/07/13 06:22:56;;;;;;;25.00;22.33;;;;;;;;;;5075147;28;20463;-73
2021/07/13 06:25:23;;;;;;;22.33;19.73;;;;;;;;;;5074823;28;20452;-74
2021/07/13 06:27:50;;;;;;;23.33;19.37;;;;;;;;;;5074882;28;20837;-74
2021/07/13 06:30:18;;;;;;;22.67;19.60;;;;;;;;;;5074735;28;20469;-73
2021/07/13 06:32:45;;;;;;;21.63;19.30;;;;;;;;;;5083759;28;20442;-73
2021/07/13 06:35:13;;;;;;;24.57;20.57;;;;;;;;;;5095467;28;20450;-74
2021/07/13 06:37:43;;;;;;;25.60;22.07;;;;;;;;;;5094896;28;20465;-74
2021/07/13 06:40:11;;;;;;;27.03;21.93;;;;;;;;;;5094932;28;20439;-74
2021/07/13 06:42:38;;;;;;;25.90;21.67;;;;;;;;;;5080296;28;20473;-74
2021/07/13 06:45:06;;;;;;;24.77;21.30;;;;;;;;;;5074550;28;20443;-74
2021/07/13 06:47:33;;;;;;;25.67;21.50;;;;;;;;;;5079269;28;20471;-75
2021/07/13 06:50:00;;;;;;;27.73;23.70;;;;;;;;;;5078199;28;20463;-75
2021/07/13 06:52:28;;;;;;;27.67;24.17;;;;;;;;;;5094722;28;20447;-75
2021/07/13 06:54:56;;;;;;;29.33;21.30;;;;;;;;;;5094608;28;20468;-75
2021/07/13 06:57:24;;;;;;;33.40;27.17;;;;;;;;;;5086999;28;20472;-75
2021/07/13 06:59:52;;;;;;;29.50;23.43;;;;;;;;;;5076549;28;20501;-75
2021/07/13 07:02:19;;;;;;;26.37;23.23;;;;;;;;;;5094399;28;20500;-75
2021/07/13 07:04:46;;;;;;;28.53;24.13;;;;;;;;;;5094654;28;20441;-75
2021/07/13 07:07:13;;;;;;;32.90;24.10;;;;;;;;;;5094238;28;20479;-75
2021/07/13 07:09:40;;;;;;;30.00;25.20;;;;;;;;;;5094384;28;20449;-77
2021/07/13 07:12:09;;;;;;;23.87;21.27;;;;;;;;;;5091834;28;20446;-75
2021/07/13 07:14:36;;;;;;;30.70;23.90;;;;;;;;;;5073986;28;20441;-74
2021/07/13 07:17:03;;;;;;;30.47;25.10;;;;;;;;;;5073953;28;20537;-74
2021/07/13 07:19:31;;;;;;;28.63;25.67;;;;;;;;;;5092229;28;20449;-75
2021/07/13 07:21:58;;;;;;;29.23;25.90;;;;;;;;;;5094173;28;20449;-75
2021/07/13 07:24:25;;;;;;;36.43;28.30;;;;;;;;;;5085096;28;20451;-76
2021/07/13 07:26:52;;;;;;;32.23;25.90;;;;;;;;;;5090282;28;20472;-76
2021/07/13 07:29:21;;;;;;;28.00;25.00;;;;;;;;;;5073908;28;20458;-76
2021/07/13 07:31:50;;;;;;;29.73;26.50;;;;;;;;;;5073270;28;20532;-77
2021/07/13 07:34:17;;;;;;;33.50;28.00;;;;;;;;;;5079980;28;20462;-78
2021/07/13 07:36:45;;;;;;;32.07;27.43;;;;;;;;;;5093590;28;20475;-77
2021/07/13 07:39:12;;;;;;;32.13;28.83;;;;;;;;;;5093361;28;20442;-74
2021/07/13 07:41:39;;;;;;;34.30;29.10;;;;;;;;;;5089881;28;20818;-75
2021/07/13 07:44:07;;;;;;;36.43;27.87;;;;;;;;;;5084963;28;20442;-77
2021/07/13 07:46:41;;;;;;;33.83;28.83;;;;;;;;;;5094448;28;20936;-76
2021/07/13 07:49:08;;;;;;;42.83;30.83;;;;;;;;;;5083800;28;20453;-76
2021/07/13 07:51:36;;;;;;;32.27;28.83;;;;;;;;;;5094218;28;20446;-76
2021/07/13 07:54:03;;;;;;;37.20;30.90;;;;;;;;;;5093880;28;20630;-76
2021/07/13 07:56:30;;;;;;;36.20;30.37;;;;;;;;;;5093050;28;20951;-76
2021/07/13 07:58:59;;;;;;;42.70;33.10;;;;;;;;;;5094170;28;20532;-76
2021/07/13 08:01:26;;;;;;;40.13;31.30;;;;;;;;;;5093477;28;20503;-76
2021/07/13 08:03:55;;;;;;;36.30;31.77;;;;;;;;;;5092902;28;20467;-76
2021/07/13 08:06:22;;;;;;;34.17;29.73;;;;;;;;;;5093749;28;20453;-76
2021/07/13 08:08:49;;;;;;;37.57;31.57;;;;;;;;;;5093427;28;20480;-76
2021/07/13 08:11:16;;;;;;;36.37;30.47;;;;;;;;;;5091511;28;20437;-76
2021/07/13 08:13:43;;;;;;;38.23;30.63;;;;;;;;;;5073202;28;20451;-76
2021/07/13 08:16:10;;;;;;;39.20;33.40;;;;;;;;;;5078138;28;20453;-76
2021/07/13 08:18:38;;;;;;;39.10;34.33;;;;;;;;;;5090889;28;20800;-78
2021/07/13 08:21:06;;;;;;;41.37;35.17;;;;;;;;;;5085191;28;20859;-77
2021/07/13 08:23:33;;;;;;;43.77;35.80;;;;;;;;;;5093399;28;20437;-77
2021/07/13 08:26:01;;;;;;;42.23;36.00;;;;;;;;;;5093440;28;20627;-78
2021/07/13 08:28:28;;;;;;;43.53;35.20;;;;;;;;;;5074461;28;20483;-78
2021/07/13 08:30:55;;;;;;;41.63;34.83;;;;;;;;;;5073070;28;20438;-77
2021/07/13 08:33:22;;;;;;;38.60;34.60;;;;;;;;;;5073206;28;20557;-77
2021/07/13 08:35:49;;;;;;;41.63;36.30;;;;;;;;;;5072745;28;20448;-77
2021/07/13 08:38:18;;;;;;;48.47;38.40;;;;;;;;;;5084163;28;20962;-77
2021/07/13 08:40:45;;;;;;;41.30;37.00;;;;;;;;;;5092931;28;20536;-75
2021/07/13 08:43:12;;;;;;;42.03;37.47;;;;;;;;;;5083301;28;20470;-75
2021/07/13 08:45:40;;;;;;;43.80;38.33;;;;;;;;;;5075703;28;20448;-76
2021/07/13 08:48:07;;;;;;;43.93;39.03;;;;;;;;;;5076545;28;20561;-76
2021/07/13 08:50:34;;;;;;;45.80;40.93;;;;;;;;;;5076620;28;20952;-75
2021/07/13 08:53:01;;;;;;;41.17;36.83;;;;;;;;;;5076160;28;20445;-75
2021/07/13 08:55:30;;;;;;;47.70;42.10;;;;;;;;;;5077030;28;20523;-75
2021/07/13 08:57:57;;;;;;;43.20;38.60;;;;;;;;;;5076432;28;20449;-76
2021/07/13 09:00:24;;;;;;;46.27;41.27;;;;;;;;;;5076211;28;20566;-76
2021/07/13 09:03:08;;;;;;;47.10;42.00;;;;;;;;;;5075826;28;20979;-75
2021/07/13 09:05:45;;;;;;;45.73;41.03;;;;;;;;;;5094900;28;20818;-76
2021/07/13 09:08:14;;;;;;;43.73;39.33;;;;;;;;;;5096539;28;20485;-75
2021/07/13 09:10:59;;;;;;;46.30;40.03;;;;;;;;;;5085099;28;20450;-77
2021/07/13 09:13:26;;;;;;;45.10;40.60;;;;;;;;;;5089413;28;20438;-76
2021/07/13 09:15:55;;;;;;;44.93;40.27;;;;;;;;;;5079794;28;20463;-76
2021/07/13 09:18:29;;;;;;;45.63;40.63;;;;;;;;;;5076278;28;20452;-76
2021/07/13 09:21:05;;;;;;;43.43;38.67;;;;;;;;;;5079303;28;20440;-75
2021/07/13 09:23:32;;;;;;;46.40;41.40;;;;;;;;;;5075883;28;20817;-74
2021/07/13 09:26:01;;;;;;;47.70;39.37;;;;;;;;;;5076091;28;20465;-75
2021/07/13 09:28:28;;;;;;;44.53;39.67;;;;;;;;;;5080914;28;20585;-75
2021/07/13 09:30:57;;;;;;;44.83;40.00;;;;;;;;;;5093219;28;20531;-76
2021/07/13 09:33:25;;;;;;;45.53;40.87;;;;;;;;;;5089226;28;20442;-75
2021/07/13 09:36:15;;;;;;;46.43;41.63;;;;;;;;;;5096284;28;21009;-76
2021/07/13 09:38:44;;;;;;;42.80;38.27;;;;;;;;;;5092827;28;20481;-74
2021/07/13 09:41:14;;;;;;;39.50;35.50;;;;;;;;;;5095959;28;20814;-75
2021/07/13 09:43:42;;;;;;;37.50;32.67;;;;;;;;;;5095805;28;20432;-75
2021/07/13 09:46:22;;;;;;;41.27;37.10;;;;;;;;;;5095664;28;21012;-74
2021/07/13 09:49:06;;;;;;;44.60;37.20;;;;;;;;;;5095920;28;20471;-75
2021/07/13 09:51:33;;;;;;;45.27;40.43;;;;;;;;;;5094251;28;20448;-76
2021/07/13 09:54:00;;;;;;;43.70;39.20;;;;;;;;;;5084784;28;20451;-75
2021/07/13 09:56:40;;;;;;;43.47;39.00;;;;;;;;;;5086906;28;20526;-75
2021/07/13 09:59:07;;;;;;;42.47;38.00;;;;;;;;;;5075866;28;20435;-75
2021/07/13 10:01:35;;;;;;;42.10;37.83;;;;;;;;;;5075384;28;20473;-75
2021/07/13 10:04:02;;;;;;;43.80;39.10;;;;;;;;;;5092106;28;20474;-75
2021/07/13 10:06:30;;;;;;;45.23;40.37;;;;;;;;;;5095312;28;21014;-74
2021/07/13 10:08:59;;;;;;;43.13;38.73;;;;;;;;;;5082525;28;20815;-75
2021/07/13 10:11:27;;;;;;;44.63;39.93;;;;;;;;;;5093844;28;20462;-75
2021/07/13 10:13:56;;;;;;;44.73;40.10;;;;;;;;;;5085620;28;20458;-75
2021/07/13 10:16:24;;;;;;;43.77;38.67;;;;;;;;;;5075730;28;20533;-75
2021/07/13 10:18:51;;;;;;;41.07;36.77;;;;;;;;;;5085869;28;20455;-75
2021/07/13 10:21:18;;;;;;;48.20;40.10;;;;;;;;;;5089463;28;20463;-75
2021/07/13 10:23:46;;;;;;;40.03;35.80;;;;;;;;;;5074935;28;20436;-75
2021/07/13 10:26:14;;;;;;;41.27;37.10;;;;;;;;;;5075002;28;20451;-74
2021/07/13 10:28:41;;;;;;;36.30;32.73;;;;;;;;;;5092849;28;20475;-75
2021/07/13 10:31:12;;;;;;;35.53;31.63;;;;;;;;;;5094730;28;20446;-75
2021/07/13 10:33:42;;;;;;;36.90;33.13;;;;;;;;;;5081397;28;20503;-75
2021/07/13 10:36:28;;;;;;;40.80;36.40;;;;;;;;;;5074348;28;20513;-74
2021/07/13 10:39:10;;;;;;;39.97;35.90;;;;;;;;;;5086140;28;20459;-75
2021/07/13 10:41:38;;;;;;;40.47;36.57;;;;;;;;;;5094689;28;20799;-74
2021/07/13 10:44:05;;;;;;;39.93;35.80;;;;;;;;;;5085415;28;20454;-74
2021/07/13 10:46:33;;;;;;;46.33;41.77;;;;;;;;;;5074612;28;20440;-75
2021/07/13 10:49:15;;;;;;;41.03;36.80;;;;;;;;;;5074428;28;20477;-75
2021/07/13 10:51:43;;;;;;;36.13;32.57;;;;;;;;;;5074379;28;20429;-74
2021/07/13 10:54:10;;;;;;;38.60;34.77;;;;;;;;;;5074711;28;20513;-74
2021/07/13 10:56:37;;;;;;;38.80;34.97;;;;;;;;;;5074539;28;20449;-74
2021/07/13 10:59:21;;;;;;;38.80;34.67;;;;;;;;;;5073706;28;20492;-74
2021/07/13 11:02:09;;;;;;;38.40;34.80;;;;;;;;;;5074953;28;20421;-74
2021/07/13 11:04:37;;;;;;;40.17;36.03;;;;;;;;;;5076785;28;20487;-75
2021/07/13 11:07:05;;;;;;;38.60;35.00;;;;;;;;;;5084217;28;20433;-74
2021/07/13 11:09:33;;;;;;;37.83;33.87;;;;;;;;;;5082033;28;20465;-74
2021/07/13 11:12:04;;;;;;;36.80;32.43;;;;;;;;;;5094340;28;20532;-74
2021/07/13 11:14:32;;;;;;;35.17;31.87;;;;;;;;;;5084843;28;20444;-74
2021/07/13 11:17:00;;;;;;;35.90;32.07;;;;;;;;;;5074059;28;20447;-74
2021/07/13 11:19:33;;;;;;;35.90;32.53;;;;;;;;;;5075771;28;20495;-74
2021/07/13 11:22:00;;;;;;;34.17;30.90;;;;;;;;;;5088043;28;20485;-75
2021/07/13 11:24:27;;;;;;;30.23;27.07;;;;;;;;;;5084652;28;20459;-75
2021/07/13 11:26:55;;;;;;;25.50;23.10;;;;;;;;;;5086878;28;20527;-75
2021/07/13 11:29:23;;;;;;;22.97;20.87;;;;;;;;;;5073900;28;20482;-74
2021/07/13 11:31:52;;;;;;;23.33;21.20;;;;;;;;;;5073781;28;20548;-74
2021/07/13 11:34:22;;;;;;;24.33;22.17;;;;;;;;;;5073978;28;20447;-74
2021/07/13 11:36:49;;;;;;;23.50;21.60;;;;;;;;;;5073406;28;20529;-74
2021/07/13 11:39:22;;;;;;;25.40;22.90;;;;;;;;;;5075070;28;20485;-74
2021/07/13 11:41:49;;;;;;;23.60;21.47;;;;;;;;;;5093528;28;20436;-74
2021/07/13 11:44:17;;;;;;;25.90;23.40;;;;;;;;;;5093685;28;20822;-74
2021/07/13 11:46:46;;;;;;;25.50;23.00;;;;;;;;;;5089523;28;20460;-76
2021/07/13 11:49:14;;;;;;;26.13;23.67;;;;;;;;;;5093896;28;20518;-74
2021/07/13 11:51:43;;;;;;;23.73;21.53;;;;;;;;;;5089701;28;20443;-72
2021/07/13 11:54:12;;;;;;;22.33;20.43;;;;;;;;;;5073503;28;20474;-73
2021/07/13 11:56:40;;;;;;;22.00;18.90;;;;;;;;;;5073154;28;20463;-72
2021/07/13 11:59:07;;;;;;;21.40;19.40;;;;;;;;;;5073147;28;20446;-72
2021/07/13 12:01:35;;;;;;;20.20;18.43;;;;;;;;;;5080659;28;20459;-72
2021/07/13 12:04:03;;;;;;;20.00;18.20;;;;;;;;;;5082880;28;20446;-73
2021/07/13 12:06:31;;;;;;;19.90;17.97;;;;;;;;;;5072983;28;20530;-73
2021/07/13 12:09:00;;;;;;;19.70;17.87;;;;;;;;;;5076166;28;20846;-72
2021/07/13 12:11:28;;;;;;;21.10;19.20;;;;;;;;;;5072767;28;20470;-72
2021/07/13 12:13:56;;;;;;;23.20;19.90;;;;;;;;;;5073017;28;20641;-72
2021/07/13 12:16:25;;;;;;;23.63;21.17;;;;;;;;;;5072843;28;20439;-72
2021/07/13 12:18:52;;;;;;;29.83;27.07;;;;;;;;;;5074728;28;20512;-72
2021/07/13 12:21:20;;;;;;;29.53;26.47;;;;;;;;;;5087236;28;20463;-72
2021/07/13 12:23:48;;;;;;;32.77;29.27;;;;;;;;;;5097529;28;20526;-72
2021/07/13 12:26:22;;;;;;;32.60;29.50;;;;;;;;;;5094099;28;20451;-72
2021/07/13 12:29:03;;;;;;;32.10;28.87;;;;;;;;;;5078130;28;20804;-71
2021/07/13 12:31:30;;;;;;;32.57;29.27;;;;;;;;;;5076706;28;20452;-71
2021/07/13 12:33:58;;;;;;;31.87;28.50;;;;;;;;;;5081014;28;20459;-72
2021/07/13 12:36:26;;;;;;;33.27;29.97;;;;;;;;;;5081174;28;20807;-74
2021/07/13 12:38:53;;;;;;;33.57;30.27;;;;;;;;;;5077758;28;20565;-72
2021/07/13 12:41:21;;;;;;;36.13;32.60;;;;;;;;;;5097103;28;20443;-71
2021/07/13 12:43:54;;;;;;;39.93;35.67;;;;;;;;;;5097363;28;20444;-73
2021/07/13 12:46:28;;;;;;;36.00;32.40;;;;;;;;;;5080418;28;20448;-73
2021/07/13 12:48:56;;;;;;;35.03;31.53;;;;;;;;;;5076819;28;20559;-73
2021/07/13 12:51:24;;;;;;;34.77;31.07;;;;;;;;;;5078844;28;20454;-73
2021/07/13 12:54:04;;;;;;;37.33;33.40;;;;;;;;;;5087708;28;20896;-70
2021/07/13 12:56:31;;;;;;;36.50;32.70;;;;;;;;;;5083414;28;22414;-72
2021/07/13 12:59:06;;;;;;;33.97;30.33;;;;;;;;;;5086426;28;20549;-72
2021/07/13 13:01:34;;;;;;;34.70;31.10;;;;;;;;;;5096226;28;20858;-73
2021/07/13 13:04:11;;;;;;;38.63;33.87;;;;;;;;;;5076147;28;20456;-73
2021/07/13 13:06:39;;;;;;;34.97;31.37;;;;;;;;;;5076932;28;20540;-73
2021/07/13 13:09:09;;;;;;;33.53;30.10;;;;;;;;;;5087541;28;20487;-73
2021/07/13 13:11:37;;;;;;;35.87;30.00;;;;;;;;;;5096477;28;20824;-73
2021/07/13 13:14:07;;;;;;;29.70;26.93;;;;;;;;;;5096716;28;20940;-73
2021/07/13 13:16:38;;;;;;;33.10;29.53;;;;;;;;;;5077642;28;20439;-73
2021/07/13 13:19:05;;;;;;;33.37;30.17;;;;;;;;;;5076455;28;20432;-73
2021/07/13 13:21:33;;;;;;;30.10;27.10;;;;;;;;;;5076157;28;20474;-72
2021/07/13 13:24:01;;;;;;;33.67;30.50;;;;;;;;;;5086821;28;20481;-72
2021/07/13 13:26:28;;;;;;;37.23;31.93;;;;;;;;;;5080047;28;20440;-72
2021/07/13 13:28:56;;;;;;;33.43;30.03;;;;;;;;;;5096165;28;20558;-73
2021/07/13 13:31:24;;;;;;;33.83;30.50;;;;;;;;;;5083245;28;21042;-75
2021/07/13 13:33:53;;;;;;;37.83;34.07;;;;;;;;;;5077998;28;20453;-82
2021/07/13 13:36:24;;;;;;;40.10;35.93;;;;;;;;;;5096780;28;20452;-80
2021/07/13 13:39:01;;;;;;;39.93;36.00;;;;;;;;;;5096297;28;20493;-74
2021/07/13 13:41:29;;;;;;;37.00;31.83;;;;;;;;;;5090625;28;20480;-73
2021/07/13 13:43:56;;;;;;;33.50;30.23;;;;;;;;;;5093820;28;20500;-74
2021/07/13 13:46:23;;;;;;;38.47;34.20;;;;;;;;;;5081692;28;20457;-73
2021/07/13 13:48:51;;;;;;;41.67;37.33;;;;;;;;;;5075377;28;20834;-73
2021/07/13 13:51:19;;;;;;;40.07;36.07;;;;;;;;;;5076561;28;20441;-73
2021/07/13 13:53:46;;;;;;;40.00;35.90;;;;;;;;;;5088989;28;20487;-73
2021/07/13 13:56:15;;;;;;;40.50;36.40;;;;;;;;;;5095703;28;20519;-75
2021/07/13 13:58:42;;;;;;;38.70;34.80;;;;;;;;;;5095070;28;20952;-74
2021/07/13 14:01:11;;;;;;;36.43;32.60;;;;;;;;;;5094829;28;20439;-74
2021/07/13 14:03:38;;;;;;;38.73;34.70;;;;;;;;;;5095244;28;20436;-74
2021/07/13 14:06:06;;;;;;;36.27;32.37;;;;;;;;;;5095815;28;20554;-74
2021/07/13 14:08:35;;;;;;;38.67;34.67;;;;;;;;;;5095575;28;20774;-74
2021/07/13 14:11:02;;;;;;;37.80;33.80;;;;;;;;;;5095375;28;20437;-76
2021/07/13 14:13:29;;;;;;;36.10;32.30;;;;;;;;;;5095431;28;20522;-74
2021/07/13 14:15:57;;;;;;;37.33;33.57;;;;;;;;;;5095753;28;20439;-75
2021/07/13 14:18:24;;;;;;;39.57;35.37;;;;;;;;;;5095104;28;20448;-75
2021/07/13 14:20:52;;;;;;;39.63;35.83;;;;;;;;;;5091896;28;21051;-73
2021/07/13 14:23:19;;;;;;;40.73;36.43;;;;;;;;;;5086318;28;20440;-73
2021/07/13 14:25:48;;;;;;;43.03;38.40;;;;;;;;;;5081542;28;20448;-72
2021/07/13 14:28:15;;;;;;;40.00;36.00;;;;;;;;;;5074641;28;20461;-74